40J

Perry-Foley Airport

Perry, Florida, USA
METAR K40J 210955Z AUTO 00000KT 10SM CLR 25/24 A2991 RMK AO2 T02460235
Observed Flight Rules
Jun-21 @ 09:55 UTC (9 minutes ago) Visual Flight Rules
Visibility Clouds
10 miles
  • Clear skies
Temperatures Readings
Current 25°C / 77°F
Dewpoint 24°C / 75°F
Humidity 94%
Altimeter 29.91" Hg
Pressure 1013 hPa
Elevation 13
METAR K40J 210955Z AUTO 00000KT 10SM CLR 25/24 A2991 RMK AO2 T02460235
Observed Flight Rules
Jun-21 @ 09:55 UTC
(9 minutes ago)
VFR
Clouds
  • Clear skies
Temperature Dewpoint
25°C / 77°F 24°C / 75°F
Humidity Altimeter Pressure
94% 29.91" Hg 1013 hPa